sensor_id;sensor_type;location;lat;lon;timestamp;P1;durP1;ratioP1;P2;durP2;ratioP2
7247;SDS011;3665;51.034;13.642;2023-05-07T00:15:39;21.00;;;16.17;;
7247;SDS011;3665;51.034;13.642;2023-05-07T00:26:25;18.23;;;15.13;;
7247;SDS011;3665;51.034;13.642;2023-05-07T00:31:25;19.80;;;15.43;;
7247;SDS011;3665;51.034;13.642;2023-05-07T00:36:11;17.33;;;14.80;;
7247;SDS011;3665;51.034;13.642;2023-05-07T00:40:59;21.53;;;16.23;;
7247;SDS011;3665;51.034;13.642;2023-05-07T00:45:49;20.73;;;15.87;;
7247;SDS011;3665;51.034;13.642;2023-05-07T00:50:42;23.03;;;17.90;;
7247;SDS011;3665;51.034;13.642;2023-05-07T00:55:41;21.53;;;17.23;;
7247;SDS011;3665;51.034;13.642;2023-05-07T01:00:31;21.90;;;17.67;;
7247;SDS011;3665;51.034;13.642;2023-05-07T01:05:37;23.67;;;18.20;;
7247;SDS011;3665;51.034;13.642;2023-05-07T01:10:35;21.13;;;17.67;;
7247;SDS011;3665;51.034;13.642;2023-05-07T04:48:51;12.47;;;11.00;;
7247;SDS011;3665;51.034;13.642;2023-05-07T04:54:58;13.20;;;10.90;;
7247;SDS011;3665;51.034;13.642;2023-05-07T05:06:05;16.47;;;12.20;;
7247;SDS011;3665;51.034;13.642;2023-05-07T05:10:53;14.23;;;12.27;;
7247;SDS011;3665;51.034;13.642;2023-05-07T05:15:43;12.90;;;11.10;;
7247;SDS011;3665;51.034;13.642;2023-05-07T05:20:27;14.77;;;12.03;;
7247;SDS011;3665;51.034;13.642;2023-05-07T05:25:16;15.87;;;12.93;;
7247;SDS011;3665;51.034;13.642;2023-05-07T05:30:04;15.83;;;11.87;;
7247;SDS011;3665;51.034;13.642;2023-05-07T05:34:52;14.73;;;11.43;;
7247;SDS011;3665;51.034;13.642;2023-05-07T05:39:39;12.50;;;10.83;;
7247;SDS011;3665;51.034;13.642;2023-05-07T05:44:43;11.80;;;10.50;;
7247;SDS011;3665;51.034;13.642;2023-05-07T05:49:33;13.93;;;10.60;;
7247;SDS011;3665;51.034;13.642;2023-05-07T05:54:21;12.10;;;10.10;;
7247;SDS011;3665;51.034;13.642;2023-05-07T05:59:08;10.50;;;9.17;;
7247;SDS011;3665;51.034;13.642;2023-05-07T06:04:12;11.03;;;9.13;;
7247;SDS011;3665;51.034;13.642;2023-05-07T06:09:00;12.20;;;10.03;;
7247;SDS011;3665;51.034;13.642;2023-05-07T06:14:05;12.17;;;10.63;;
7247;SDS011;3665;51.034;13.642;2023-05-07T06:18:51;13.90;;;10.47;;
7247;SDS011;3665;51.034;13.642;2023-05-07T06:23:39;13.37;;;10.80;;
7247;SDS011;3665;51.034;13.642;2023-05-07T06:28:29;11.37;;;9.60;;
7247;SDS011;3665;51.034;13.642;2023-05-07T06:33:33;11.57;;;10.03;;
7247;SDS011;3665;51.034;13.642;2023-05-07T06:38:19;11.57;;;8.83;;
7247;SDS011;3665;51.034;13.642;2023-05-07T06:49:03;10.90;;;7.97;;
7247;SDS011;3665;51.034;13.642;2023-05-07T06:54:20;7.27;;;6.57;;
7247;SDS011;3665;51.034;13.642;2023-05-07T07:10:04;7.63;;;6.70;;
7247;SDS011;3665;51.034;13.642;2023-05-07T07:14:53;7.57;;;6.87;;
7247;SDS011;3665;51.034;13.642;2023-05-07T07:19:56;9.87;;;7.93;;
7247;SDS011;3665;51.034;13.642;2023-05-07T07:24:47;7.87;;;6.83;;
7247;SDS011;3665;51.034;13.642;2023-05-07T07:29:40;10.30;;;7.57;;
7247;SDS011;3665;51.034;13.642;2023-05-07T07:39:56;9.30;;;6.93;;
7247;SDS011;3665;51.034;13.642;2023-05-07T07:44:44;8.67;;;7.50;;
7247;SDS011;3665;51.034;13.642;2023-05-07T07:49:31;8.23;;;6.40;;
7247;SDS011;3665;51.034;13.642;2023-05-07T07:54:18;6.20;;;5.60;;
7247;SDS011;3665;51.034;13.642;2023-05-07T08:04:47;5.33;;;4.80;;
7247;SDS011;3665;51.034;13.642;2023-05-07T08:10:03;5.63;;;5.13;;
7247;SDS011;3665;51.034;13.642;2023-05-07T08:14:56;5.23;;;4.73;;
7247;SDS011;3665;51.034;13.642;2023-05-07T08:20:00;4.83;;;4.43;;
7247;SDS011;3665;51.034;13.642;2023-05-07T08:37:22;4.33;;;3.93;;
7247;SDS011;3665;51.034;13.642;2023-05-07T08:42:22;4.33;;;3.80;;
7247;SDS011;3665;51.034;13.642;2023-05-07T08:53:34;4.27;;;3.87;;
7247;SDS011;3665;51.034;13.642;2023-05-07T08:58:57;4.27;;;3.80;;
7247;SDS011;3665;51.034;13.642;2023-05-07T09:04:28;15.13;;;12.40;;
7247;SDS011;3665;51.034;13.642;2023-05-07T09:09:39;4.00;;;3.70;;
7247;SDS011;3665;51.034;13.642;2023-05-07T09:25:34;5.50;;;5.00;;
7247;SDS011;3665;51.034;13.642;2023-05-07T09:30:28;5.50;;;5.00;;
7247;SDS011;3665;51.034;13.642;2023-05-07T09:35:40;5.33;;;4.83;;
7247;SDS011;3665;51.034;13.642;2023-05-07T09:41:05;5.70;;;5.20;;
7247;SDS011;3665;51.034;13.642;2023-05-07T09:46:13;7.50;;;6.30;;
7247;SDS011;3665;51.034;13.642;2023-05-07T09:51:45;6.00;;;5.43;;
7247;SDS011;3665;51.034;13.642;2023-05-07T10:02:04;7.30;;;6.60;;
7247;SDS011;3665;51.034;13.642;2023-05-07T10:07:09;6.47;;;5.77;;
7247;SDS011;3665;51.034;13.642;2023-05-07T10:11:56;5.43;;;4.93;;
7247;SDS011;3665;51.034;13.642;2023-05-07T10:22:05;6.00;;;5.50;;
7247;SDS011;3665;51.034;13.642;2023-05-07T10:27:52;7.63;;;6.13;;
7247;SDS011;3665;51.034;13.642;2023-05-07T10:32:44;8.90;;;5.77;;
7247;SDS011;3665;51.034;13.642;2023-05-07T10:37:40;6.43;;;5.83;;
7247;SDS011;3665;51.034;13.642;2023-05-07T10:42:35;5.83;;;5.23;;
7247;SDS011;3665;51.034;13.642;2023-05-07T10:47:25;6.20;;;5.70;;
7247;SDS011;3665;51.034;13.642;2023-05-07T10:52:16;6.37;;;5.77;;
7247;SDS011;3665;51.034;13.642;2023-05-07T10:57:32;6.97;;;6.37;;
7247;SDS011;3665;51.034;13.642;2023-05-07T11:08:20;6.50;;;5.87;;
7247;SDS011;3665;51.034;13.642;2023-05-07T11:13:19;6.03;;;5.53;;
7247;SDS011;3665;51.034;13.642;2023-05-07T11:18:52;5.80;;;5.30;;
7247;SDS011;3665;51.034;13.642;2023-05-07T11:29:20;5.77;;;5.27;;
7247;SDS011;3665;51.034;13.642;2023-05-07T11:34:23;5.27;;;4.87;;
7247;SDS011;3665;51.034;13.642;2023-05-07T11:49:31;6.83;;;6.23;;
7247;SDS011;3665;51.034;13.642;2023-05-07T11:54:19;6.57;;;5.97;;
7247;SDS011;3665;51.034;13.642;2023-05-07T11:59:07;5.53;;;5.03;;
7247;SDS011;3665;51.034;13.642;2023-05-07T12:03:56;5.60;;;5.10;;
7247;SDS011;3665;51.034;13.642;2023-05-07T12:19:25;5.23;;;4.83;;
7247;SDS011;3665;51.034;13.642;2023-05-07T12:24:15;5.80;;;5.30;;
7247;SDS011;3665;51.034;13.642;2023-05-07T12:29:21;5.43;;;5.00;;
7247;SDS011;3665;51.034;13.642;2023-05-07T12:34:06;4.97;;;4.57;;
7247;SDS011;3665;51.034;13.642;2023-05-07T12:38:59;5.40;;;4.90;;
7247;SDS011;3665;51.034;13.642;2023-05-07T12:43:55;5.77;;;5.17;;
7247;SDS011;3665;51.034;13.642;2023-05-07T12:48:43;6.03;;;5.43;;
7247;SDS011;3665;51.034;13.642;2023-05-07T12:53:33;5.90;;;5.40;;
7247;SDS011;3665;51.034;13.642;2023-05-07T12:58:21;6.00;;;5.60;;
7247;SDS011;3665;51.034;13.642;2023-05-07T13:03:08;5.57;;;5.03;;
7247;SDS011;3665;51.034;13.642;2023-05-07T13:07:58;6.00;;;5.53;;
7247;SDS011;3665;51.034;13.642;2023-05-07T13:12:45;4.70;;;4.30;;
7247;SDS011;3665;51.034;13.642;2023-05-07T13:17:33;4.93;;;4.53;;
7247;SDS011;3665;51.034;13.642;2023-05-07T13:22:20;5.53;;;5.03;;
7247;SDS011;3665;51.034;13.642;2023-05-07T13:32:47;4.50;;;4.20;;
7247;SDS011;3665;51.034;13.642;2023-05-07T13:37:41;5.13;;;4.73;;
7247;SDS011;3665;51.034;13.642;2023-05-07T13:42:39;4.30;;;4.00;;
7247;SDS011;3665;51.034;13.642;2023-05-07T13:47:23;4.50;;;4.20;;
7247;SDS011;3665;51.034;13.642;2023-05-07T13:52:14;4.17;;;3.87;;
7247;SDS011;3665;51.034;13.642;2023-05-07T13:57:07;6.20;;;5.80;;
7247;SDS011;3665;51.034;13.642;2023-05-07T14:02:05;4.40;;;4.10;;
7247;SDS011;3665;51.034;13.642;2023-05-07T14:06:51;4.73;;;4.33;;
7247;SDS011;3665;51.034;13.642;2023-05-07T14:11:41;4.57;;;4.17;;
7247;SDS011;3665;51.034;13.642;2023-05-07T14:27:13;5.00;;;4.50;;
7247;SDS011;3665;51.034;13.642;2023-05-07T14:31:57;3.87;;;3.57;;
7247;SDS011;3665;51.034;13.642;2023-05-07T14:36:43;3.83;;;3.53;;
7247;SDS011;3665;51.034;13.642;2023-05-07T14:41:31;3.30;;;3.00;;
7247;SDS011;3665;51.034;13.642;2023-05-07T14:57:33;3.43;;;3.13;;
7247;SDS011;3665;51.034;13.642;2023-05-07T15:02:22;3.50;;;3.20;;
7247;SDS011;3665;51.034;13.642;2023-05-07T15:07:07;5.00;;;3.10;;
7247;SDS011;3665;51.034;13.642;2023-05-07T15:11:56;3.53;;;3.23;;
7247;SDS011;3665;51.034;13.642;2023-05-07T15:16:47;3.50;;;3.27;;
7247;SDS011;3665;51.034;13.642;2023-05-07T15:21:50;4.37;;;3.70;;
7247;SDS011;3665;51.034;13.642;2023-05-07T15:26:38;3.63;;;3.33;;
7247;SDS011;3665;51.034;13.642;2023-05-07T15:31:24;3.83;;;3.53;;
7247;SDS011;3665;51.034;13.642;2023-05-07T15:36:11;3.53;;;3.23;;
7247;SDS011;3665;51.034;13.642;2023-05-07T15:41:00;3.90;;;3.60;;
7247;SDS011;3665;51.034;13.642;2023-05-07T15:45:50;4.33;;;3.87;;
7247;SDS011;3665;51.034;13.642;2023-05-07T15:50:35;4.60;;;4.20;;
7247;SDS011;3665;51.034;13.642;2023-05-07T15:55:21;4.33;;;3.93;;
7247;SDS011;3665;51.034;13.642;2023-05-07T16:00:31;4.67;;;4.27;;
7247;SDS011;3665;51.034;13.642;2023-05-07T16:05:25;4.50;;;4.10;;
7247;SDS011;3665;51.034;13.642;2023-05-07T16:10:20;5.30;;;4.80;;
7247;SDS011;3665;51.034;13.642;2023-05-07T16:15:07;5.10;;;4.60;;
7247;SDS011;3665;51.034;13.642;2023-05-07T16:19:57;4.90;;;4.50;;
7247;SDS011;3665;51.034;13.642;2023-05-07T16:24:45;4.60;;;4.20;;
7247;SDS011;3665;51.034;13.642;2023-05-07T16:29:31;5.80;;;5.30;;
7247;SDS011;3665;51.034;13.642;2023-05-07T16:34:24;5.87;;;5.37;;
7247;SDS011;3665;51.034;13.642;2023-05-07T16:44:36;6.20;;;5.23;;
7247;SDS011;3665;51.034;13.642;2023-05-07T16:49:47;6.30;;;5.77;;
7247;SDS011;3665;51.034;13.642;2023-05-07T16:54:37;5.37;;;4.87;;
7247;SDS011;3665;51.034;13.642;2023-05-07T16:59:25;5.60;;;5.10;;
7247;SDS011;3665;51.034;13.642;2023-05-07T17:04:13;5.07;;;4.67;;
7247;SDS011;3665;51.034;13.642;2023-05-07T17:09:15;5.10;;;4.70;;
7247;SDS011;3665;51.034;13.642;2023-05-07T17:14:04;4.80;;;4.40;;
7247;SDS011;3665;51.034;13.642;2023-05-07T17:18:52;4.90;;;4.50;;
7247;SDS011;3665;51.034;13.642;2023-05-07T17:23:40;5.67;;;5.20;;
7247;SDS011;3665;51.034;13.642;2023-05-07T17:28:33;6.53;;;5.17;;
7247;SDS011;3665;51.034;13.642;2023-05-07T17:33:17;5.17;;;4.67;;
7247;SDS011;3665;51.034;13.642;2023-05-07T17:38:07;6.13;;;5.63;;
7247;SDS011;3665;51.034;13.642;2023-05-07T17:42:51;5.80;;;5.30;;
7247;SDS011;3665;51.034;13.642;2023-05-07T17:47:40;8.20;;;7.40;;
7247;SDS011;3665;51.034;13.642;2023-05-07T17:52:28;7.77;;;7.03;;
7247;SDS011;3665;51.034;13.642;2023-05-07T17:57:17;6.37;;;5.77;;
7247;SDS011;3665;51.034;13.642;2023-05-07T18:02:05;6.23;;;5.67;;
7247;SDS011;3665;51.034;13.642;2023-05-07T18:06:51;7.13;;;6.50;;
7247;SDS011;3665;51.034;13.642;2023-05-07T18:11:41;5.97;;;5.47;;
7247;SDS011;3665;51.034;13.642;2023-05-07T18:16:30;7.17;;;6.43;;
7247;SDS011;3665;51.034;13.642;2023-05-07T18:21:17;6.37;;;5.87;;
7247;SDS011;3665;51.034;13.642;2023-05-07T18:26:05;6.20;;;5.60;;
7247;SDS011;3665;51.034;13.642;2023-05-07T18:30:52;5.57;;;5.07;;
7247;SDS011;3665;51.034;13.642;2023-05-07T18:35:40;6.53;;;6.03;;
7247;SDS011;3665;51.034;13.642;2023-05-07T18:40:30;6.90;;;6.30;;
7247;SDS011;3665;51.034;13.642;2023-05-07T18:45:17;7.60;;;6.80;;
7247;SDS011;3665;51.034;13.642;2023-05-07T18:50:04;7.17;;;6.30;;
7247;SDS011;3665;51.034;13.642;2023-05-07T18:54:52;6.73;;;6.10;;
7247;SDS011;3665;51.034;13.642;2023-05-07T18:59:39;7.57;;;6.73;;
7247;SDS011;3665;51.034;13.642;2023-05-07T19:04:25;7.23;;;6.57;;
7247;SDS011;3665;51.034;13.642;2023-05-07T19:09:16;7.33;;;6.63;;
7247;SDS011;3665;51.034;13.642;2023-05-07T19:19:08;6.93;;;6.27;;
7247;SDS011;3665;51.034;13.642;2023-05-07T19:24:00;7.20;;;6.47;;
7247;SDS011;3665;51.034;13.642;2023-05-07T19:28:44;7.30;;;6.60;;
7247;SDS011;3665;51.034;13.642;2023-05-07T19:33:41;6.87;;;6.23;;
7247;SDS011;3665;51.034;13.642;2023-05-07T19:38:34;7.07;;;6.27;;
7247;SDS011;3665;51.034;13.642;2023-05-07T19:43:24;8.17;;;7.37;;
7247;SDS011;3665;51.034;13.642;2023-05-07T19:48:16;9.10;;;7.93;;
7247;SDS011;3665;51.034;13.642;2023-05-07T19:53:02;7.67;;;6.97;;
7247;SDS011;3665;51.034;13.642;2023-05-07T19:57:49;7.77;;;7.07;;
7247;SDS011;3665;51.034;13.642;2023-05-07T20:02:38;8.10;;;7.30;;
7247;SDS011;3665;51.034;13.642;2023-05-07T20:07:25;8.23;;;7.53;;
7247;SDS011;3665;51.034;13.642;2023-05-07T20:12:12;7.43;;;6.73;;
7247;SDS011;3665;51.034;13.642;2023-05-07T20:17:21;7.40;;;6.70;;
7247;SDS011;3665;51.034;13.642;2023-05-07T20:22:04;7.43;;;6.80;;
7247;SDS011;3665;51.034;13.642;2023-05-07T20:26:51;7.00;;;6.40;;
7247;SDS011;3665;51.034;13.642;2023-05-07T20:31:40;7.57;;;6.87;;
7247;SDS011;3665;51.034;13.642;2023-05-07T20:36:23;7.00;;;6.30;;
7247;SDS011;3665;51.034;13.642;2023-05-07T20:41:16;8.30;;;7.07;;
7247;SDS011;3665;51.034;13.642;2023-05-07T20:46:20;7.27;;;6.40;;
7247;SDS011;3665;51.034;13.642;2023-05-07T20:56:12;7.23;;;6.63;;
7247;SDS011;3665;51.034;13.642;2023-05-07T21:01:03;6.70;;;6.10;;
7247;SDS011;3665;51.034;13.642;2023-05-07T21:05:50;5.80;;;5.30;;
7247;SDS011;3665;51.034;13.642;2023-05-07T21:10:56;5.90;;;5.30;;
7247;SDS011;3665;51.034;13.642;2023-05-07T21:15:40;5.90;;;5.40;;
7247;SDS011;3665;51.034;13.642;2023-05-07T21:20:28;5.97;;;5.27;;
7247;SDS011;3665;51.034;13.642;2023-05-07T21:25:17;5.70;;;5.10;;
7247;SDS011;3665;51.034;13.642;2023-05-07T21:30:08;5.63;;;5.03;;
7247;SDS011;3665;51.034;13.642;2023-05-07T21:35:12;6.00;;;5.37;;
7247;SDS011;3665;51.034;13.642;2023-05-07T21:39:56;5.63;;;5.03;;
7247;SDS011;3665;51.034;13.642;2023-05-07T21:44:43;5.67;;;5.10;;
7247;SDS011;3665;51.034;13.642;2023-05-07T21:49:35;5.97;;;5.37;;
7247;SDS011;3665;51.034;13.642;2023-05-07T21:54:21;5.23;;;4.73;;
7247;SDS011;3665;51.034;13.642;2023-05-07T21:59:05;5.33;;;4.90;;
7247;SDS011;3665;51.034;13.642;2023-05-07T22:03:57;5.37;;;4.87;;
7247;SDS011;3665;51.034;13.642;2023-05-07T22:08:45;6.47;;;4.93;;
7247;SDS011;3665;51.034;13.642;2023-05-07T22:13:31;5.33;;;4.83;;
7247;SDS011;3665;51.034;13.642;2023-05-07T22:18:21;5.33;;;4.83;;
7247;SDS011;3665;51.034;13.642;2023-05-07T22:23:09;5.03;;;4.50;;
7247;SDS011;3665;51.034;13.642;2023-05-07T22:27:56;5.13;;;4.63;;
7247;SDS011;3665;51.034;13.642;2023-05-07T22:32:49;5.73;;;5.20;;
7247;SDS011;3665;51.034;13.642;2023-05-07T22:37:33;5.10;;;4.70;;
7247;SDS011;3665;51.034;13.642;2023-05-07T22:42:23;7.40;;;4.93;;
7247;SDS011;3665;51.034;13.642;2023-05-07T22:47:09;5.03;;;4.63;;
7247;SDS011;3665;51.034;13.642;2023-05-07T22:51:55;5.43;;;4.93;;
7247;SDS011;3665;51.034;13.642;2023-05-07T22:56:45;6.47;;;4.73;;
7247;SDS011;3665;51.034;13.642;2023-05-07T23:01:34;5.00;;;4.60;;
7247;SDS011;3665;51.034;13.642;2023-05-07T23:11:27;6.07;;;4.97;;
7247;SDS011;3665;51.034;13.642;2023-05-07T23:16:12;5.90;;;4.50;;
7247;SDS011;3665;51.034;13.642;2023-05-07T23:21:00;5.77;;;5.20;;
7247;SDS011;3665;51.034;13.642;2023-05-07T23:25:48;5.33;;;4.83;;
7247;SDS011;3665;51.034;13.642;2023-05-07T23:30:35;5.70;;;5.20;;
7247;SDS011;3665;51.034;13.642;2023-05-07T23:35:23;6.60;;;5.13;;
7247;SDS011;3665;51.034;13.642;2023-05-07T23:40:13;5.97;;;5.37;;
7247;SDS011;3665;51.034;13.642;2023-05-07T23:50:05;5.97;;;5.33;;
7247;SDS011;3665;51.034;13.642;2023-05-07T23:54:51;6.07;;;5.57;;
7247;SDS011;3665;51.034;13.642;2023-05-07T23:59:43;6.10;;;5.57;;
